Time;durP1;ratioP1;P1;durP2;ratioP2;P2;SDS_P1;SDS_P2;PMS_P1;PMS_P2;Temp;Humidity;BMP_temperature;BMP_pressure;BME280_temperature;BME280_humidity;BME280_pressure;Samples;Min_cycle;Max_cycle;Signal;HPM_P1;HPM_P2
2022/08/28 00:00:19;;;;;;;46.92;31.80;;;;;;;17.79;89.12;98220.69;7392564;19;20026;-72
2022/08/28 00:02:46;;;;;;;54.78;34.28;;;;;;;17.74;89.11;98221.28;7395190;19;21168;-73
2022/08/28 00:05:15;;;;;;;48.30;34.25;;;;;;;17.73;89.05;98225.00;7389526;19;20014;-72
2022/08/28 00:07:42;;;;;;;53.50;33.63;;;;;;;17.70;89.12;98224.59;7387954;19;20015;-71
2022/08/28 00:10:15;;;;;;;49.25;31.75;;;;;;;17.69;89.15;98226.44;7390147;19;20042;-72
2022/08/28 00:12:43;;;;;;;50.28;32.47;;;;;;;17.70;89.08;98227.25;7386693;19;20018;-72
2022/08/28 00:15:14;;;;;;;46.50;31.92;;;;;;;17.70;89.07;98237.97;7387160;19;20015;-72
2022/08/28 00:17:41;;;;;;;49.22;32.13;;;;;;;17.69;89.17;98228.28;7389709;19;20014;-71
2022/08/28 00:20:10;;;;;;;47.65;31.35;;;;;;;17.77;89.32;98228.06;7388171;19;20106;-73
2022/08/28 00:22:37;;;;;;;51.92;34.30;;;;;;;17.84;89.27;98231.59;7390874;19;20090;-71
2022/08/28 00:25:05;;;;;;;50.97;33.70;;;;;;;17.87;89.25;98236.53;7386600;19;20106;-72
2022/08/28 00:30:33;;;;;;;61.60;38.25;;;;;;;17.77;89.58;98234.28;7388143;19;20017;-72
2022/08/28 00:33:10;;;;;;;68.72;38.78;;;;;;;17.75;89.79;98235.50;7387397;19;20050;-72
2022/08/28 00:35:39;;;;;;;58.47;36.25;;;;;;;17.77;89.47;98238.78;7387939;19;20010;-73
2022/08/28 00:38:08;;;;;;;62.30;37.60;;;;;;;17.76;90.11;98231.78;7388073;19;20014;-71
2022/08/28 00:40:35;;;;;;;67.47;39.67;;;;;;;17.73;90.09;98240.22;7386839;19;20021;-72
2022/08/28 00:43:05;;;;;;;57.67;35.72;;;;;;;17.68;89.97;98237.34;7386003;19;20035;-71
2022/08/28 00:45:33;;;;;;;62.03;37.03;;;;;;;17.58;89.70;98234.25;7385726;19;20018;-71
2022/08/28 00:48:05;;;;;;;57.10;34.33;;;;;;;17.52;89.49;98231.34;7384022;19;20025;-71
2022/08/28 00:52:04;;;;;;;51.58;32.50;;;;;;;17.50;89.37;98228.03;7389500;19;20020;-71
2022/08/28 00:53:27;;;;;;;59.08;34.75;;;;;;;17.53;89.56;98227.63;7384206;19;20014;-71
2022/08/28 00:55:59;;;;;;;;;;;;;;;17.55;89.62;98220.25;7386178;19;20025;-71
2022/08/28 00:58:26;;;;;;;55.47;32.63;;;;;;;17.57;89.64;98227.25;7386286;19;20218;-72
2022/08/28 01:00:52;;;;;;;51.20;33.42;;;;;;;17.58;89.46;98220.88;7386331;19;20015;-70
2022/08/28 01:03:19;;;;;;;55.40;34.55;;;;;;;17.53;89.59;98216.13;7385232;19;20022;-72
2022/08/28 01:05:51;;;;;;;48.17;31.77;;;;;;;17.54;89.51;98215.94;7387995;19;20568;-71
2022/08/28 01:08:17;;;;;;;59.38;35.38;;;;;;;17.55;89.47;98214.88;7383625;19;20002;-72
2022/08/28 01:10:48;;;;;;;48.42;32.83;;;;;;;17.55;89.53;98217.56;7384248;19;21043;-71
2022/08/28 01:13:16;;;;;;;55.17;34.72;;;;;;;17.58;89.45;98220.88;7383806;19;20478;-72
2022/08/28 01:15:44;;;;;;;54.42;36.92;;;;;;;17.60;89.73;98229.50;7383367;19;20022;-72
2022/08/28 01:18:14;;;;;;;56.17;33.35;;;;;;;17.59;89.68;98227.84;7385566;19;20018;-71
2022/08/28 01:20:46;;;;;;;47.78;32.63;;;;;;;17.62;89.66;98230.13;7384959;19;20018;-72
2022/08/28 01:23:37;;;;;;;60.20;36.45;;;;;;;17.61;89.64;98236.50;7384386;19;20472;-72
2022/08/28 01:26:04;;;;;;;60.17;36.80;;;;;;;17.60;90.13;98232.19;7386113;19;20366;-72
2022/08/28 01:28:37;;;;;;;59.13;35.35;;;;;;;17.73;90.14;98226.84;7387246;19;20014;-72
2022/08/28 01:31:04;;;;;;;55.75;35.75;;;;;;;17.78;89.85;98227.88;7388749;19;20014;-72
2022/08/28 01:33:31;;;;;;;56.03;32.45;;;;;;;17.82;89.71;98222.13;7385950;19;20015;-72
2022/08/28 01:35:58;;;;;;;58.35;35.05;;;;;;;17.77;89.79;98222.72;7382435;19;20015;-71
2022/08/28 01:38:24;;;;;;;54.00;34.83;;;;;;;17.74;89.67;98217.78;7387179;19;20011;-72
2022/08/28 01:40:52;;;;;;;51.22;34.58;;;;;;;17.70;89.89;98225.41;7387485;19;20014;-72
2022/08/28 01:43:22;;;;;;;51.40;33.22;;;;;;;17.69;90.08;98222.91;7384473;19;20021;-72
2022/08/28 01:45:56;;;;;;;56.75;34.10;;;;;;;17.72;89.72;98218.00;7387516;19;20022;-72
2022/08/28 01:48:25;;;;;;;50.85;33.38;;;;;;;17.73;90.00;98222.31;7385944;19;20042;-73
2022/08/28 01:50:52;;;;;;;62.83;36.85;;;;;;;17.78;89.95;98222.53;7388173;19;20029;-72
2022/08/28 01:53:22;;;;;;;57.10;34.00;;;;;;;17.79;90.01;98215.34;7386028;19;22335;-72
2022/08/28 01:55:52;;;;;;;49.90;33.97;;;;;;;17.83;90.22;98221.94;7384396;19;20006;-72
2022/08/28 01:58:19;;;;;;;57.45;36.05;;;;;;;17.85;90.07;98222.56;7387994;19;20253;-72
2022/08/28 02:00:46;;;;;;;53.47;34.25;;;;;;;17.86;90.22;98223.38;7388061;19;20106;-72
2022/08/28 02:03:14;;;;;;;55.17;36.45;;;;;;;17.86;90.18;98221.53;7383763;19;20062;-72
2022/08/28 02:05:41;;;;;;;60.08;36.60;;;;;;;17.90;90.23;98222.75;7385128;19;20556;-71
2022/08/28 02:08:08;;;;;;;55.05;34.10;;;;;;;17.93;90.04;98226.88;7384090;19;20414;-72
2022/08/28 02:10:37;;;;;;;60.47;34.90;;;;;;;17.92;90.08;98230.59;7384947;19;20006;-72
2022/08/28 02:13:05;;;;;;;65.30;35.63;;;;;;;17.93;89.80;98233.06;7387374;19;20010;-72
2022/08/28 02:15:33;;;;;;;53.67;36.20;;;;;;;17.92;89.59;98233.25;7383950;19;20457;-72
2022/08/28 02:18:00;;;;;;;59.40;34.85;;;;;;;17.85;89.65;98232.44;7387473;19;20031;-72
2022/08/28 02:20:28;;;;;;;61.88;35.53;;;;;;;17.71;89.87;98231.56;7387619;19;20034;-72
2022/08/28 02:22:56;;;;;;;57.92;37.13;;;;;;;17.70;90.06;98238.78;7384981;19;20608;-71
2022/08/28 02:25:23;;;;;;;53.13;35.17;;;;;;;17.75;89.97;98230.97;7383578;19;20755;-71
2022/08/28 02:27:50;;;;;;;59.63;36.95;;;;;;;17.77;89.95;98231.59;7383484;19;20084;-72
2022/08/28 02:30:17;;;;;;;58.88;37.15;;;;;;;17.82;90.16;98233.66;7387573;19;20029;-72
2022/08/28 02:32:45;;;;;;;53.53;36.15;;;;;;;17.79;89.99;98236.75;7386923;19;20670;-72
2022/08/28 02:35:14;;;;;;;59.88;37.88;;;;;;;17.79;90.04;98234.06;7386360;19;20891;-72
2022/08/28 02:37:43;;;;;;;64.22;39.55;;;;;;;17.74;89.94;98229.31;7385384;19;20880;-72
2022/08/28 02:40:13;;;;;;;63.53;38.60;;;;;;;17.71;90.14;98237.75;7382552;19;20859;-72
2022/08/28 02:42:40;;;;;;;68.03;39.53;;;;;;;17.74;89.99;98236.50;7383159;19;20011;-72
2022/08/28 02:45:10;;;;;;;66.43;38.60;;;;;;;17.73;90.40;98242.91;7386116;19;20030;-72
2022/08/28 02:47:38;;;;;;;69.63;39.65;;;;;;;17.74;90.36;98247.22;7386789;19;20078;-72
2022/08/28 02:50:06;;;;;;;65.32;38.15;;;;;;;17.84;90.23;98233.47;7386625;19;20057;-71
2022/08/28 02:52:34;;;;;;;55.53;35.30;;;;;;;17.93;90.10;98242.91;7383074;19;20038;-71
2022/08/28 02:55:01;;;;;;;55.83;35.33;;;;;;;17.95;90.00;98233.66;7384284;19;20029;-72
2022/08/28 02:57:28;;;;;;;59.85;36.35;;;;;;;17.91;90.07;98235.13;7381201;19;20018;-72
2022/08/28 02:59:55;;;;;;;61.70;37.90;;;;;;;17.85;90.34;98235.09;7384099;19;20014;-72
2022/08/28 03:02:22;;;;;;;63.10;37.45;;;;;;;17.88;90.35;98234.72;7385857;19;20014;-72
2022/08/28 03:04:51;;;;;;;64.07;37.60;;;;;;;17.89;90.36;98229.13;7387953;19;20027;-71
2022/08/28 03:07:18;;;;;;;61.90;37.22;;;;;;;17.95;90.19;98235.50;7381958;19;20477;-72
2022/08/28 03:09:45;;;;;;;62.42;36.17;;;;;;;17.92;90.27;98234.06;7384263;19;20026;-72
2022/08/28 03:12:12;;;;;;;62.42;36.15;;;;;;;18.01;90.11;98228.50;7385249;19;20026;-72
2022/08/28 03:14:39;;;;;;;57.00;35.85;;;;;;;17.94;90.18;98234.69;7381473;19;20017;-71
2022/08/28 03:17:06;;;;;;;55.55;35.42;;;;;;;17.98;90.22;98238.63;7382639;19;20022;-72
2022/08/28 03:19:33;;;;;;;55.72;34.92;;;;;;;18.04;90.10;98238.81;7386968;19;20092;-72
2022/08/28 03:22:00;;;;;;;61.35;35.83;;;;;;;18.05;90.19;98237.78;7385509;19;20074;-72
2022/08/28 03:24:27;;;;;;;54.33;35.92;;;;;;;18.03;90.15;98229.94;7383672;19;20507;-71
2022/08/28 03:26:54;;;;;;;61.13;37.50;;;;;;;17.95;90.02;98230.97;7389341;19;20015;-71
2022/08/28 03:29:20;;;;;;;62.00;35.90;;;;;;;17.93;90.17;98227.72;7390909;19;20026;-72
2022/08/28 03:31:47;;;;;;;61.08;35.78;;;;;;;18.01;90.03;98229.34;7389782;19;20082;-71
2022/08/28 03:34:14;;;;;;;65.07;37.58;;;;;;;17.92;90.28;98231.41;7390137;19;20010;-72
2022/08/28 03:36:40;;;;;;;61.60;37.33;;;;;;;17.98;90.11;98229.75;7389892;19;20014;-72
2022/08/28 03:39:07;;;;;;;59.25;37.42;;;;;;;17.97;90.18;98223.56;7392522;19;20014;-73
2022/08/28 03:41:34;;;;;;;60.90;38.20;;;;;;;17.99;90.31;98226.88;7393171;19;20014;-72
2022/08/28 03:44:01;;;;;;;62.63;37.97;;;;;;;17.96;90.29;98238.00;7392566;19;20010;-72
2022/08/28 03:46:33;;;;;;;59.45;36.83;;;;;;;18.01;90.29;98239.22;7388410;19;20078;-70
2022/08/28 03:49:02;;;;;;;60.15;37.45;;;;;;;17.98;90.34;98230.59;7390226;19;20094;-71
2022/08/28 03:51:31;;;;;;;61.38;36.63;;;;;;;18.04;90.20;98233.47;7390717;19;20022;-72
2022/08/28 03:53:59;;;;;;;66.25;37.33;;;;;;;17.93;90.43;98242.91;7394252;19;20103;-71
2022/08/28 03:56:28;;;;;;;69.97;39.13;;;;;;;17.89;90.53;98242.53;7384891;19;20018;-71
2022/08/28 03:58:57;;;;;;;66.68;37.13;;;;;;;18.05;90.21;98238.59;7392168;19;20608;-72
2022/08/28 04:01:24;;;;;;;68.20;39.60;;;;;;;18.06;89.91;98245.63;7389737;19;20395;-72
2022/08/28 04:03:51;;;;;;;67.03;38.17;;;;;;;18.01;90.05;98247.25;7389674;19;20040;-72
2022/08/28 04:06:18;;;;;;;62.72;38.30;;;;;;;18.09;89.66;98241.69;7385934;19;20020;-71
2022/08/28 04:08:46;;;;;;;61.58;36.97;;;;;;;18.06;89.79;98242.09;7389220;19;20118;-72
2022/08/28 04:11:13;;;;;;;60.35;35.53;;;;;;;18.13;89.68;98243.75;7389831;19;20011;-72
2022/08/28 04:13:40;;;;;;;57.83;35.95;;;;;;;18.10;89.61;98241.47;7389776;19;20010;-73
2022/08/28 04:16:10;;;;;;;59.35;35.08;;;;;;;18.09;89.75;98247.03;7391500;19;20018;-73
2022/08/28 04:18:38;;;;;;;53.72;34.30;;;;;;;18.16;89.61;98247.84;7387570;19;20018;-72
2022/08/28 04:21:11;;;;;;;54.97;34.47;;;;;;;18.08;89.70;98246.22;7389071;19;20026;-72
2022/08/28 04:23:38;;;;;;;;;;;;;;;18.02;89.73;98241.69;7391672;19;20014;-71
2022/08/28 04:26:09;;;;;;;54.95;34.78;;;;;;;18.08;89.75;98245.41;7390243;19;19922;-72
2022/08/28 04:28:36;;;;;;;47.72;33.17;;;;;;;18.12;89.65;98247.47;7388523;19;20007;-72
2022/08/28 04:31:03;;;;;;;55.05;35.40;;;;;;;18.05;89.61;98245.81;7392897;19;20018;-72
2022/08/28 04:33:30;;;;;;;59.67;36.15;;;;;;;18.06;89.73;98248.31;7391756;19;20014;-73
2022/08/28 04:36:01;;;;;;;51.95;34.58;;;;;;;18.13;89.73;98250.97;7386552;19;20014;-73
2022/08/28 04:38:28;;;;;;;49.60;33.00;;;;;;;18.17;89.58;98250.34;7385509;19;20043;-72
2022/08/28 04:40:55;;;;;;;52.78;33.88;;;;;;;18.18;89.65;98253.84;7387933;19;20294;-71
2022/08/28 04:43:24;;;;;;;55.03;34.85;;;;;;;18.11;89.76;98247.66;7391262;19;20035;-73
2022/08/28 04:45:51;;;;;;;49.33;33.92;;;;;;;18.18;89.61;98251.97;7389421;19;20018;-73
2022/08/28 04:48:18;;;;;;;52.55;33.10;;;;;;;18.23;89.60;98253.22;7392281;19;20038;-72
2022/08/28 04:50:47;;;;;;;55.55;35.05;;;;;;;18.21;89.52;98256.09;7387102;19;20085;-72
2022/08/28 04:53:16;;;;;;;48.03;33.30;;;;;;;18.16;89.63;98254.03;7386844;19;20022;-72
2022/08/28 04:55:50;;;;;;;50.83;33.05;;;;;;;18.14;89.52;98250.75;7382899;19;20504;-72
2022/08/28 04:58:20;;;;;;;51.25;33.17;;;;;;;18.20;89.41;98255.28;7384878;19;20014;-72
2022/08/28 05:00:51;;;;;;;53.80;32.88;;;;;;;18.23;89.32;98248.69;7391045;19;20010;-72
2022/08/28 05:03:18;;;;;;;46.25;31.52;;;;;;;18.22;89.30;98252.41;7391009;19;20035;-71
2022/08/28 05:05:51;;;;;;;47.72;31.65;;;;;;;18.09;89.26;98250.56;7390132;19;20487;-72
2022/08/28 05:08:19;;;;;;;50.70;33.40;;;;;;;18.15;89.34;98254.25;7384097;19;20573;-71
2022/08/28 05:10:46;;;;;;;45.30;31.38;;;;;;;18.24;89.15;98265.56;7385728;19;20014;-71
2022/08/28 05:13:14;;;;;;;44.92;31.55;;;;;;;18.27;89.09;98259.78;7388731;19;20022;-73
2022/08/28 05:15:43;;;;;;;48.25;32.42;;;;;;;18.34;88.97;98261.44;7385962;19;20034;-72
2022/08/28 05:18:14;;;;;;;49.88;32.55;;;;;;;18.32;89.04;98262.69;7388601;19;20019;-72
2022/08/28 05:20:43;;;;;;;47.20;32.08;;;;;;;18.41;88.85;98264.94;7388093;19;20010;-71
2022/08/28 05:23:10;;;;;;;49.50;33.75;;;;;;;18.42;88.75;98260.41;7388815;19;20477;-72
2022/08/28 05:25:39;;;;;;;47.50;32.05;;;;;;;18.40;88.81;98273.16;7387881;19;20018;-72
2022/08/28 05:28:08;;;;;;;44.45;30.85;;;;;;;18.36;88.41;98270.09;7385308;19;20010;-70
2022/08/28 05:30:39;;;;;;;44.95;31.20;;;;;;;18.44;88.38;98271.72;7384388;19;20011;-72
2022/08/28 05:33:06;;;;;;;43.67;29.77;;;;;;;18.46;88.15;98266.16;7388577;19;20429;-72
2022/08/28 05:35:36;;;;;;;43.33;31.08;;;;;;;18.50;87.82;98275.44;7386316;19;21012;-71
2022/08/28 05:38:03;;;;;;;45.78;29.38;;;;;;;18.47;87.90;98281.22;7385727;19;20011;-72
2022/08/28 05:40:30;;;;;;;45.85;29.25;;;;;;;18.49;87.80;98273.78;7384677;19;20006;-72
2022/08/28 05:42:57;;;;;;;40.22;29.58;;;;;;;18.63;87.54;98276.22;7383060;19;20019;-71
2022/08/28 05:45:24;;;;;;;40.80;29.10;;;;;;;18.71;87.59;98274.34;7387299;19;20663;-72
2022/08/28 05:47:51;;;;;;;40.03;29.10;;;;;;;18.69;87.33;98273.72;7386391;19;20010;-72
2022/08/28 05:50:18;;;;;;;43.22;29.70;;;;;;;18.71;87.28;98285.06;7385610;19;20021;-72
2022/08/28 05:52:46;;;;;;;47.38;30.67;;;;;;;18.73;86.74;98283.81;7387145;19;20021;-72
2022/08/28 05:55:13;;;;;;;40.63;29.60;;;;;;;18.90;86.60;98286.88;7388178;19;20480;-72
2022/08/28 05:57:40;;;;;;;38.60;29.90;;;;;;;18.99;86.38;98279.44;7385822;19;20497;-71
2022/08/28 06:00:12;;;;;;;41.92;29.55;;;;;;;18.74;86.74;98287.31;7386737;19;20006;-72
2022/08/28 06:02:40;;;;;;;49.50;30.52;;;;;;;18.89;86.55;98282.56;7384147;19;20473;-72
2022/08/28 06:05:08;;;;;;;38.47;29.33;;;;;;;19.09;86.23;98287.88;7382763;19;20014;-72
2022/08/28 06:07:39;;;;;;;39.40;27.65;;;;;;;19.14;85.96;98288.06;7386834;19;20018;-72
2022/08/28 06:10:07;;;;;;;40.08;26.80;;;;;;;19.00;85.25;98294.50;7385390;19;20509;-72
2022/08/28 06:12:36;;;;;;;33.20;25.67;;;;;;;19.21;84.91;98299.56;7384685;19;20014;-72
2022/08/28 06:15:04;;;;;;;36.92;26.27;;;;;;;18.95;84.55;98299.66;7387123;19;20014;-73
2022/08/28 06:17:31;;;;;;;32.20;25.05;;;;;;;18.96;83.85;98296.78;7382821;19;20126;-72
2022/08/28 06:19:58;;;;;;;32.28;23.92;;;;;;;19.01;83.46;98301.50;7385157;19;20022;-72
2022/08/28 06:22:25;;;;;;;32.45;22.95;;;;;;;19.05;83.78;98300.03;7387795;19;20078;-72
2022/08/28 06:24:52;;;;;;;31.23;22.33;;;;;;;19.22;83.34;98295.00;7387110;19;20015;-73
2022/08/28 06:27:19;;;;;;;28.25;21.65;;;;;;;19.22;82.45;98295.88;7382578;19;20386;-73
2022/08/28 06:29:46;;;;;;;31.63;20.48;;;;;;;19.44;82.09;98290.19;7385672;19;20386;-73
2022/08/28 06:32:13;;;;;;;22.15;18.23;;;;;;;19.35;81.75;98294.13;7384981;19;20021;-71
2022/08/28 06:34:40;;;;;;;21.90;18.40;;;;;;;19.33;81.18;98305.09;7383127;19;20035;-73
2022/08/28 06:37:08;;;;;;;24.90;16.17;;;;;;;19.39;80.21;98309.59;7379837;19;20774;-72
2022/08/28 06:39:35;;;;;;;23.35;17.48;;;;;;;19.51;80.59;98304.38;7385837;19;20014;-73
2022/08/28 06:42:04;;;;;;;26.05;18.58;;;;;;;19.60;80.18;98303.09;7386033;19;20018;-72
2022/08/28 06:44:31;;;;;;;20.98;17.35;;;;;;;19.54;79.66;98306.63;7383271;19;20038;-72
2022/08/28 06:46:59;;;;;;;22.65;17.60;;;;;;;19.52;79.86;98306.03;7380790;19;20346;-73
2022/08/28 06:49:25;;;;;;;20.08;17.90;;;;;;;19.32;79.76;98311.47;7385418;19;20028;-72
2022/08/28 06:52:01;;;;;;;28.60;18.30;;;;;;;19.46;80.34;98318.44;7381102;19;20050;-72
2022/08/28 06:54:29;;;;;;;21.45;18.70;;;;;;;19.54;80.37;98317.38;7382056;19;20020;-73
2022/08/28 06:56:56;;;;;;;23.63;18.75;;;;;;;19.79;79.53;98319.31;7383717;19;20014;-72
2022/08/28 06:59:23;;;;;;;23.77;18.35;;;;;;;20.07;80.32;98318.91;7386791;19;20014;-72
2022/08/28 07:01:52;;;;;;;23.63;18.58;;;;;;;20.03;78.63;98323.88;7381495;19;20098;-72
2022/08/28 07:04:19;;;;;;;27.15;20.02;;;;;;;19.87;79.96;98321.75;7386725;19;20017;-72
2022/08/28 07:06:49;;;;;;;26.50;19.92;;;;;;;20.00;79.99;98331.56;7382154;19;20021;-72
2022/08/28 07:09:20;;;;;;;23.05;19.42;;;;;;;20.40;78.69;98318.63;7383764;19;20510;-71
2022/08/28 07:11:47;;;;;;;30.70;20.60;;;;;;;20.54;76.99;98317.50;7379521;19;20011;-71
2022/08/28 07:14:14;;;;;;;24.98;19.67;;;;;;;20.57;78.24;98324.31;7386478;19;21560;-71
2022/08/28 07:16:43;;;;;;;18.75;16.67;;;;;;;20.70;77.44;98324.19;7384643;19;20010;-72
2022/08/28 07:19:10;;;;;;;25.73;17.75;;;;;;;20.48;76.64;98331.78;7386492;19;20728;-72
2022/08/28 07:21:42;;;;;;;21.05;16.33;;;;;;;20.74;77.27;98341.50;7385853;19;20011;-72
2022/08/28 07:24:12;;;;;;;17.92;14.75;;;;;;;20.85;73.96;98334.56;7385066;19;20035;-72
2022/08/28 07:26:40;;;;;;;16.67;13.25;;;;;;;20.87;73.93;98340.56;7379304;19;20402;-71
2022/08/28 07:29:07;;;;;;;17.58;13.68;;;;;;;20.86;74.70;98338.09;7386000;19;20398;-71
2022/08/28 07:31:40;;;;;;;20.25;14.15;;;;;;;20.65;74.18;98342.84;7384995;19;20461;-72
2022/08/28 07:34:08;;;;;;;21.52;13.77;;;;;;;20.78;72.36;98341.91;7382174;19;20018;-71
2022/08/28 07:36:36;;;;;;;21.55;14.18;;;;;;;20.73;73.34;98341.75;7385036;19;20014;-72
2022/08/28 07:39:04;;;;;;;16.83;13.70;;;;;;;20.81;76.08;98339.56;7381429;19;20026;-72
2022/08/28 07:41:32;;;;;;;17.83;13.68;;;;;;;20.98;74.60;98342.50;7384083;19;20038;-72
2022/08/28 07:46:44;;;;;;;18.02;11.98;;;;;;;21.32;74.14;98351.00;7384075;19;20021;-70
2022/08/28 07:49:18;;;;;;;21.13;11.85;;;;;;;21.46;73.02;98355.22;7383900;19;20010;-72
2022/08/28 07:51:45;;;;;;;15.35;13.20;;;;;;;21.43;70.88;98349.44;7385115;19;20010;-72
2022/08/28 07:54:13;;;;;;;15.98;12.77;;;;;;;21.41;74.01;98357.78;7386812;19;20011;-72
2022/08/28 07:56:44;;;;;;;19.73;12.57;;;;;;;21.33;71.52;98352.66;7378869;19;20011;-72
2022/08/28 07:59:11;;;;;;;16.15;13.00;;;;;;;21.36;71.14;98354.09;7381654;19;20419;-72
2022/08/28 08:01:45;;;;;;;17.75;13.00;;;;;;;21.52;72.99;98353.50;7381809;19;20492;-72
2022/08/28 08:04:14;;;;;;;14.60;12.23;;;;;;;21.60;70.91;98363.94;7381636;19;21304;-72
2022/08/28 08:06:44;;;;;;;20.15;12.73;;;;;;;21.54;72.32;98362.16;7377649;19;20484;-72
2022/08/28 08:09:14;;;;;;;18.13;12.93;;;;;;;21.56;72.80;98357.34;7382054;19;20490;-71
2022/08/28 08:11:41;;;;;;;15.93;12.50;;;;;;;21.51;71.86;98362.59;7383417;19;20094;-71
2022/08/28 08:14:09;;;;;;;20.15;12.32;;;;;;;21.26;71.34;98360.81;7387275;19;20035;-72
2022/08/28 08:16:39;;;;;;;15.98;12.55;;;;;;;21.21;70.95;98360.66;7386009;19;20011;-72
2022/08/28 08:19:12;;;;;;;13.02;11.10;;;;;;;21.54;71.11;98372.09;7390097;19;20497;-72
2022/08/28 08:21:44;;;;;;;16.73;12.38;;;;;;;21.99;70.87;98369.84;7391191;19;20018;-72
2022/08/28 08:24:14;;;;;;;14.90;12.07;;;;;;;22.21;69.90;98366.66;7386236;19;20014;-72
2022/08/28 08:26:49;;;;;;;19.33;11.90;;;;;;;22.41;69.63;98374.41;7389695;19;20043;-72
2022/08/28 08:29:28;;;;;;;17.20;11.90;;;;;;;22.04;68.37;98379.94;7390062;19;20010;-72
2022/08/28 08:32:01;;;;;;;13.23;11.85;;;;;;;22.10;68.22;98381.69;7385295;19;20022;-71
2022/08/28 08:34:27;;;;;;;18.10;13.32;;;;;;;21.72;69.96;98385.53;7388927;19;20037;-72
2022/08/28 08:36:54;;;;;;;15.60;12.73;;;;;;;21.99;68.75;98379.81;7389658;19;20018;-72
2022/08/28 08:39:21;;;;;;;13.52;11.57;;;;;;;22.23;70.75;98383.41;7390322;19;20010;-72
2022/08/28 08:41:50;;;;;;;16.23;12.57;;;;;;;22.44;68.03;98387.44;7388989;19;20025;-71
2022/08/28 08:44:36;;;;;;;17.75;13.07;;;;;;;22.74;66.41;98385.47;7388102;19;20018;-71
2022/08/28 08:47:14;;;;;;;17.83;13.38;;;;;;;22.49;66.21;98379.47;7383539;19;20085;-72
2022/08/28 08:49:56;;;;;;;20.88;13.07;;;;;;;22.47;68.65;98386.97;7388120;19;20036;-73
2022/08/28 08:52:32;;;;;;;15.65;12.50;;;;;;;22.50;68.95;98386.50;7388942;19;20022;-72
2022/08/28 08:55:05;;;;;;;18.30;12.93;;;;;;;22.57;68.13;98384.53;7387921;19;20015;-71
2022/08/28 08:57:34;;;;;;;15.80;11.70;;;;;;;23.00;65.95;98386.06;7388415;19;20860;-71
2022/08/28 09:00:04;;;;;;;18.02;12.95;;;;;;;22.99;67.80;98390.66;7392558;19;20018;-71
2022/08/28 09:02:33;;;;;;;14.75;11.93;;;;;;;22.97;65.81;98398.16;7389889;19;20338;-72
2022/08/28 09:05:11;;;;;;;14.13;12.02;;;;;;;23.21;63.76;98396.25;7388235;19;20015;-72
2022/08/28 09:07:46;;;;;;;17.67;11.27;;;;;;;22.91;64.56;98399.06;7388171;19;20022;-73
2022/08/28 09:10:18;;;;;;;17.20;11.60;;;;;;;23.17;66.21;98402.34;7387620;19;20391;-72
2022/08/28 09:13:00;;;;;;;15.85;11.57;;;;;;;23.00;65.41;98402.25;7390481;19;20474;-71
2022/08/28 09:15:38;;;;;;;17.07;11.63;;;;;;;23.05;65.49;98404.25;7388122;19;20029;-72
2022/08/28 09:18:21;;;;;;;16.75;11.25;;;;;;;23.49;66.62;98405.50;7387502;19;20681;-70
2022/08/28 09:20:49;;;;;;;14.93;10.40;;;;;;;23.43;66.07;98396.47;7386742;19;20018;-71
2022/08/28 09:23:16;;;;;;;12.82;10.60;;;;;;;23.58;64.06;98397.81;7388491;19;20022;-71
2022/08/28 09:25:43;;;;;;;15.02;10.15;;;;;;;23.93;63.81;98397.72;7386822;19;20089;-72
2022/08/28 09:28:16;;;;;;;16.33;12.13;;;;;;;23.95;61.00;98397.50;7386885;19;20053;-72
2022/08/28 09:30:52;;;;;;;14.65;11.05;;;;;;;23.85;64.04;98398.13;7385553;19;20014;-72
2022/08/28 09:33:37;;;;;;;14.82;11.20;;;;;;;24.58;65.42;98403.75;7386473;19;20365;-72
2022/08/28 09:36:25;;;;;;;13.60;10.20;;;;;;;24.87;59.49;98408.00;7383956;19;20674;-73
2022/08/28 09:39:19;;;;;;;14.93;9.93;;;;;;;23.81;60.63;98407.78;7380485;19;20026;-72
2022/08/28 09:45:15;;;;;;;11.73;10.10;;;;;;;23.40;65.53;98406.91;7386661;19;20028;-70
2022/08/28 09:47:43;;;;;;;17.40;10.60;;;;;;;23.14;64.01;98405.53;7385474;19;20387;-73
2022/08/28 09:50:27;;;;;;;12.18;10.50;;;;;;;22.58;67.53;98400.44;7389081;19;20025;-72
2022/08/28 09:53:13;;;;;;;14.07;10.10;;;;;;;22.61;68.44;98401.88;7383408;19;20015;-73
2022/08/28 09:56:10;;;;;;;16.08;11.10;;;;;;;22.40;65.76;98399.72;7380737;19;20026;-72
2022/08/28 09:59:00;;;;;;;14.82;10.82;;;;;;;23.04;63.92;98397.22;7382234;19;20017;-72
2022/08/28 10:01:45;;;;;;;12.35;9.70;;;;;;;23.13;65.09;98402.03;7385259;19;20366;-73
2022/08/28 10:04:15;;;;;;;13.43;9.65;;;;;;;23.05;64.46;98410.47;7387689;19;20749;-73
2022/08/28 10:06:50;;;;;;;14.95;9.13;;;;;;;22.91;63.39;98409.06;7382092;19;20018;-72
2022/08/28 10:09:28;;;;;;;12.50;9.57;;;;;;;23.00;63.83;98402.25;7383236;19;20702;-73
2022/08/28 10:12:09;;;;;;;12.40;9.38;;;;;;;22.84;63.81;98397.56;7382657;19;20030;-73
2022/08/28 10:15:01;;;;;;;10.37;8.57;;;;;;;22.42;63.63;98400.31;7379239;19;20104;-73
2022/08/28 10:17:27;;;;;;;15.90;9.85;;;;;;;22.98;67.88;98404.38;7383797;19;20026;-73
2022/08/28 10:20:19;;;;;;;11.60;9.30;;;;;;;23.80;61.17;98398.00;7390849;19;20015;-72
2022/08/28 10:22:55;;;;;;;11.60;10.40;;;;;;;24.12;59.26;98402.94;7385754;19;20014;-73
2022/08/28 10:25:32;;;;;;;11.68;8.77;;;;;;;24.12;63.96;98401.06;7387532;19;20003;-74
2022/08/28 10:28:31;;;;;;;13.52;9.57;;;;;;;24.12;62.07;98394.81;7385458;19;20031;-72
2022/08/28 10:31:05;;;;;;;16.33;9.85;;;;;;;23.97;64.45;98396.19;7379031;19;20018;-74
2022/08/28 10:33:35;;;;;;;12.43;9.77;;;;;;;23.96;62.54;98397.25;7389519;19;20020;-74
2022/08/28 10:36:04;;;;;;;11.23;10.02;;;;;;;23.80;63.47;98395.31;7384924;19;20018;-74
2022/08/28 10:38:36;;;;;;;14.10;10.02;;;;;;;23.20;64.92;98391.13;7387180;19;20019;-75
2022/08/28 10:41:16;;;;;;;;;;;;;;;23.26;65.16;98384.75;7385219;19;20022;-74
2022/08/28 10:43:49;;;;;;;15.68;9.40;;;;;;;22.99;65.33;98393.34;7384382;19;20270;-73
2022/08/28 10:46:29;;;;;;;12.88;9.45;;;;;;;22.70;67.41;98392.38;7381825;19;20079;-74
2022/08/28 10:49:03;;;;;;;11.93;10.00;;;;;;;22.49;68.21;98391.06;7385873;19;20015;-74
2022/08/28 10:51:44;;;;;;;13.00;9.07;;;;;;;22.70;66.70;98397.78;7384980;19;20018;-74
2022/08/28 10:54:22;;;;;;;11.50;9.43;;;;;;;22.75;66.67;98395.22;7387081;19;20021;-74
2022/08/28 10:56:53;;;;;;;14.60;9.77;;;;;;;22.96;66.62;98401.94;7379682;19;20102;-73
2022/08/28 10:59:22;;;;;;;10.80;8.98;;;;;;;22.72;66.75;98398.38;7385357;19;20015;-74
2022/08/28 11:01:50;;;;;;;10.52;9.43;;;;;;;22.78;65.10;98397.44;7383613;19;20022;-73
2022/08/28 11:04:22;;;;;;;10.38;9.13;;;;;;;22.82;68.51;98395.06;7385373;19;20498;-73
2022/08/28 11:07:04;;;;;;;11.13;9.30;;;;;;;23.09;66.49;98392.78;7382074;19;20070;-73
2022/08/28 11:09:44;;;;;;;10.50;9.38;;;;;;;23.03;65.42;98396.41;7388165;19;20703;-74
2022/08/28 11:12:14;;;;;;;15.60;8.75;;;;;;;23.46;66.32;98397.88;7383868;19;20101;-73
2022/08/28 11:14:46;;;;;;;14.90;9.60;;;;;;;23.87;65.05;98387.88;7387827;19;20357;-75
2022/08/28 11:17:20;;;;;;;13.10;9.07;;;;;;;24.22;59.55;98393.13;7381936;19;20014;-74
2022/08/28 11:20:16;;;;;;;12.77;8.95;;;;;;;24.98;57.40;98407.06;7383323;19;20017;-72
2022/08/28 11:23:10;;;;;;;10.93;8.38;;;;;;;25.34;52.68;98393.25;7381336;19;20017;-73
2022/08/28 11:25:39;;;;;;;11.80;7.85;;;;;;;25.13;53.81;98398.38;7383956;19;20371;-74
2022/08/28 11:28:10;;;;;;;10.23;8.20;;;;;;;24.44;58.71;98395.97;7381164;19;20042;-73
2022/08/28 11:30:37;;;;;;;9.63;7.25;;;;;;;24.80;58.84;98399.22;7387182;19;20030;-73
2022/08/28 11:33:25;;;;;;;14.38;7.88;;;;;;;24.36;62.28;98399.06;7380734;19;20015;-72
2022/08/28 11:35:52;;;;;;;13.25;8.27;;;;;;;24.00;61.98;98395.69;7381577;19;20022;-72
2022/08/28 11:38:42;;;;;;;11.93;8.88;;;;;;;23.53;61.60;98395.84;7377862;19;20473;-72
2022/08/28 11:41:23;;;;;;;13.20;8.40;;;;;;;23.61;63.15;98391.94;7385006;19;20085;-71
2022/08/28 11:44:08;;;;;;;11.70;8.68;;;;;;;23.76;63.14;98391.47;7386914;19;20098;-73